sensor_id;sensor_type;location;lat;lon;timestamp;pressure;altitude;pressure_sealevel;temperature;humidity
56604;BME280;42486;47.478;19.036;2023-02-18T00:02:11;100524.53;;;10.27;96.82
56604;BME280;42486;47.478;19.036;2023-02-18T00:05:14;100525.16;;;10.43;95.98
56604;BME280;42486;47.478;19.036;2023-02-18T00:08:17;100541.09;;;10.64;95.65
56604;BME280;42486;47.478;19.036;2023-02-18T00:11:21;100522.59;;;10.91;94.32
56604;BME280;42486;47.478;19.036;2023-02-18T00:14:23;100524.31;;;11.03;93.70
56604;BME280;42486;47.478;19.036;2023-02-18T00:17:27;100520.72;;;11.17;93.29
56604;BME280;42486;47.478;19.036;2023-02-18T00:20:31;100515.97;;;11.22;93.37
56604;BME280;42486;47.478;19.036;2023-02-18T00:23:37;100516.84;;;11.34;92.96
56604;BME280;42486;47.478;19.036;2023-02-18T00:26:40;100507.22;;;11.46;92.49
56604;BME280;42486;47.478;19.036;2023-02-18T00:29:43;100511.66;;;11.57;91.88
56604;BME280;42486;47.478;19.036;2023-02-18T00:32:47;100510.50;;;11.61;91.48
56604;BME280;42486;47.478;19.036;2023-02-18T00:35:51;100506.22;;;11.60;91.66
56604;BME280;42486;47.478;19.036;2023-02-18T00:38:55;100502.16;;;11.67;91.69
56604;BME280;42486;47.478;19.036;2023-02-18T00:41:59;100491.09;;;11.63;91.92
56604;BME280;42486;47.478;19.036;2023-02-18T00:45:04;100497.06;;;11.65;91.92
56604;BME280;42486;47.478;19.036;2023-02-18T00:48:09;100491.84;;;11.77;91.60
56604;BME280;42486;47.478;19.036;2023-02-18T00:51:13;100488.88;;;11.81;91.67
56604;BME280;42486;47.478;19.036;2023-02-18T00:54:19;100495.22;;;11.90;91.24
56604;BME280;42486;47.478;19.036;2023-02-18T00:57:24;100484.41;;;11.95;91.14
56604;BME280;42486;47.478;19.036;2023-02-18T01:00:33;100479.84;;;11.97;91.10
56604;BME280;42486;47.478;19.036;2023-02-18T01:03:40;100480.34;;;12.02;90.39
56604;BME280;42486;47.478;19.036;2023-02-18T01:06:44;100483.66;;;12.04;90.59
56604;BME280;42486;47.478;19.036;2023-02-18T01:09:48;100474.03;;;12.04;90.51
56604;BME280;42486;47.478;19.036;2023-02-18T01:12:52;100475.13;;;12.13;89.97
56604;BME280;42486;47.478;19.036;2023-02-18T01:15:58;100460.81;;;12.17;89.78
56604;BME280;42486;47.478;19.036;2023-02-18T01:19:01;100470.22;;;12.20;89.33
56604;BME280;42486;47.478;19.036;2023-02-18T01:22:04;100466.78;;;12.19;89.65
56604;BME280;42486;47.478;19.036;2023-02-18T01:25:09;100472.81;;;12.31;88.80
56604;BME280;42486;47.478;19.036;2023-02-18T01:28:18;100466.75;;;12.30;88.53
56604;BME280;42486;47.478;19.036;2023-02-18T01:31:23;100468.06;;;12.36;88.47
56604;BME280;42486;47.478;19.036;2023-02-18T01:34:26;100462.09;;;12.45;87.40
56604;BME280;42486;47.478;19.036;2023-02-18T01:37:29;100458.50;;;12.46;87.14
56604;BME280;42486;47.478;19.036;2023-02-18T01:40:34;100453.47;;;12.54;86.57
56604;BME280;42486;47.478;19.036;2023-02-18T01:43:39;100459.75;;;12.63;86.13
56604;BME280;42486;47.478;19.036;2023-02-18T01:46:42;100462.38;;;12.74;85.48
56604;BME280;42486;47.478;19.036;2023-02-18T01:49:51;100451.13;;;12.84;84.14
56604;BME280;42486;47.478;19.036;2023-02-18T01:52:56;100462.91;;;12.89;83.65
56604;BME280;42486;47.478;19.036;2023-02-18T01:55:59;100458.13;;;12.94;82.87
56604;BME280;42486;47.478;19.036;2023-02-18T01:59:09;100463.09;;;13.09;81.75
56604;BME280;42486;47.478;19.036;2023-02-18T02:02:17;100449.53;;;13.25;80.43
56604;BME280;42486;47.478;19.036;2023-02-18T02:05:28;100468.31;;;13.41;79.35
56604;BME280;42486;47.478;19.036;2023-02-18T02:08:33;100456.84;;;13.42;79.13
56604;BME280;42486;47.478;19.036;2023-02-18T02:18:37;100446.47;;;13.40;78.74
56604;BME280;42486;47.478;19.036;2023-02-18T02:21:55;100426.87;;;13.44;78.94
56604;BME280;42486;47.478;19.036;2023-02-18T02:25:17;100443.78;;;13.52;77.67
56604;BME280;42486;47.478;19.036;2023-02-18T02:31:48;100438.28;;;13.55;76.91
56604;BME280;42486;47.478;19.036;2023-02-18T02:38:19;100432.63;;;13.59;76.32
56604;BME280;42486;47.478;19.036;2023-02-18T02:41:42;100443.03;;;13.71;75.58
56604;BME280;42486;47.478;19.036;2023-02-18T02:48:27;100457.97;;;13.70;76.02
56604;BME280;42486;47.478;19.036;2023-02-18T02:51:38;100450.22;;;13.69;76.13
56604;BME280;42486;47.478;19.036;2023-02-18T02:54:43;100430.50;;;13.53;76.43
56604;BME280;42486;47.478;19.036;2023-02-18T02:57:51;100450.69;;;13.53;76.91
56604;BME280;42486;47.478;19.036;2023-02-18T03:01:23;100464.13;;;13.59;76.03
56604;BME280;42486;47.478;19.036;2023-02-18T03:14:12;100451.47;;;13.64;75.52
56604;BME280;42486;47.478;19.036;2023-02-18T03:17:24;100450.56;;;13.54;76.32
56604;BME280;42486;47.478;19.036;2023-02-18T03:20:43;100460.25;;;13.54;76.25
56604;BME280;42486;47.478;19.036;2023-02-18T03:23:59;100465.41;;;13.65;75.56
56604;BME280;42486;47.478;19.036;2023-02-18T03:27:08;100466.28;;;13.75;74.81
56604;BME280;42486;47.478;19.036;2023-02-18T03:30:23;100464.50;;;13.76;74.85
56604;BME280;42486;47.478;19.036;2023-02-18T03:33:34;100470.41;;;13.68;75.30
56604;BME280;42486;47.478;19.036;2023-02-18T03:36:41;100466.50;;;13.62;76.03
56604;BME280;42486;47.478;19.036;2023-02-18T03:39:45;100467.41;;;13.52;76.53
56604;BME280;42486;47.478;19.036;2023-02-18T03:42:53;100465.72;;;13.51;76.56
56604;BME280;42486;47.478;19.036;2023-02-18T03:45:57;100480.59;;;13.40;77.11
56604;BME280;42486;47.478;19.036;2023-02-18T03:49:03;100462.53;;;13.26;77.88
56604;BME280;42486;47.478;19.036;2023-02-18T03:52:05;100457.50;;;13.23;78.49
56604;BME280;42486;47.478;19.036;2023-02-18T03:55:11;100476.25;;;13.30;78.28
56604;BME280;42486;47.478;19.036;2023-02-18T03:58:14;100473.38;;;13.21;78.60
56604;BME280;42486;47.478;19.036;2023-02-18T04:01:19;100480.09;;;13.14;79.29
56604;BME280;42486;47.478;19.036;2023-02-18T04:04:23;100470.87;;;13.20;79.16
56604;BME280;42486;47.478;19.036;2023-02-18T04:07:32;100479.28;;;13.14;79.40
56604;BME280;42486;47.478;19.036;2023-02-18T04:10:37;100487.81;;;13.16;79.47
56604;BME280;42486;47.478;19.036;2023-02-18T04:13:41;100494.50;;;13.20;79.11
56604;BME280;42486;47.478;19.036;2023-02-18T04:16:52;100491.06;;;13.19;79.68
56604;BME280;42486;47.478;19.036;2023-02-18T04:20:00;100494.63;;;13.18;79.78
56604;BME280;42486;47.478;19.036;2023-02-18T04:23:08;100482.22;;;13.20;80.07
56604;BME280;42486;47.478;19.036;2023-02-18T04:26:13;100487.25;;;13.12;80.57
56604;BME280;42486;47.478;19.036;2023-02-18T04:29:17;100481.66;;;13.06;80.92
56604;BME280;42486;47.478;19.036;2023-02-18T04:32:20;100490.12;;;13.09;81.14
56604;BME280;42486;47.478;19.036;2023-02-18T04:35:26;100490.50;;;13.05;81.48
56604;BME280;42486;47.478;19.036;2023-02-18T04:38:29;100488.50;;;12.97;81.81
56604;BME280;42486;47.478;19.036;2023-02-18T04:41:32;100495.34;;;12.88;82.92
56604;BME280;42486;47.478;19.036;2023-02-18T04:44:36;100485.69;;;12.89;82.37
56604;BME280;42486;47.478;19.036;2023-02-18T04:47:40;100486.91;;;12.85;83.08
56604;BME280;42486;47.478;19.036;2023-02-18T04:50:43;100495.50;;;12.75;83.50
56604;BME280;42486;47.478;19.036;2023-02-18T04:53:47;100491.31;;;12.73;84.21
56604;BME280;42486;47.478;19.036;2023-02-18T04:56:54;100501.19;;;12.81;84.29
56604;BME280;42486;47.478;19.036;2023-02-18T04:59:59;100498.56;;;12.81;85.51
56604;BME280;42486;47.478;19.036;2023-02-18T05:03:04;100515.50;;;12.76;88.59
56604;BME280;42486;47.478;19.036;2023-02-18T05:06:11;100517.31;;;12.65;89.14
56604;BME280;42486;47.478;19.036;2023-02-18T05:09:16;100525.28;;;12.63;89.87
56604;BME280;42486;47.478;19.036;2023-02-18T05:12:24;100529.25;;;12.57;91.15
56604;BME280;42486;47.478;19.036;2023-02-18T05:15:26;100527.34;;;12.48;91.60
56604;BME280;42486;47.478;19.036;2023-02-18T05:18:32;100521.75;;;12.42;92.98
56604;BME280;42486;47.478;19.036;2023-02-18T05:21:38;100522.25;;;12.36;93.96
56604;BME280;42486;47.478;19.036;2023-02-18T05:24:47;100526.66;;;12.24;94.37
56604;BME280;42486;47.478;19.036;2023-02-18T05:27:52;100537.84;;;12.26;93.62
56604;BME280;42486;47.478;19.036;2023-02-18T05:30:58;100547.97;;;12.30;92.91
56604;BME280;42486;47.478;19.036;2023-02-18T05:34:08;100539.63;;;12.25;93.18
56604;BME280;42486;47.478;19.036;2023-02-18T05:37:17;100539.28;;;12.19;93.26
56604;BME280;42486;47.478;19.036;2023-02-18T05:40:21;100552.00;;;12.23;91.94
56604;BME280;42486;47.478;19.036;2023-02-18T05:43:25;100544.75;;;12.27;91.45
56604;BME280;42486;47.478;19.036;2023-02-18T05:46:30;100550.59;;;12.30;91.71
56604;BME280;42486;47.478;19.036;2023-02-18T05:49:35;100554.66;;;12.34;91.12
56604;BME280;42486;47.478;19.036;2023-02-18T05:52:40;100563.81;;;12.29;91.89
56604;BME280;42486;47.478;19.036;2023-02-18T05:55:43;100566.44;;;12.29;91.49
56604;BME280;42486;47.478;19.036;2023-02-18T05:58:49;100569.28;;;12.26;91.97
56604;BME280;42486;47.478;19.036;2023-02-18T06:01:52;100590.59;;;12.21;92.25
56604;BME280;42486;47.478;19.036;2023-02-18T06:04:58;100590.13;;;12.16;91.51
56604;BME280;42486;47.478;19.036;2023-02-18T06:08:05;100584.53;;;12.21;90.35
56604;BME280;42486;47.478;19.036;2023-02-18T06:11:11;100591.78;;;12.17;91.16
56604;BME280;42486;47.478;19.036;2023-02-18T06:14:14;100593.91;;;12.12;90.36
56604;BME280;42486;47.478;19.036;2023-02-18T06:17:22;100596.44;;;12.14;89.59
56604;BME280;42486;47.478;19.036;2023-02-18T06:20:29;100594.75;;;12.12;89.97
56604;BME280;42486;47.478;19.036;2023-02-18T06:23:32;100609.75;;;12.10;89.90
56604;BME280;42486;47.478;19.036;2023-02-18T06:26:37;100610.09;;;12.06;90.56
56604;BME280;42486;47.478;19.036;2023-02-18T06:29:43;100617.84;;;12.07;89.66
56604;BME280;42486;47.478;19.036;2023-02-18T06:32:48;100630.06;;;11.96;90.91
56604;BME280;42486;47.478;19.036;2023-02-18T06:35:56;100633.37;;;11.86;94.76
56604;BME280;42486;47.478;19.036;2023-02-18T06:39:02;100631.09;;;11.58;99.61
56604;BME280;42486;47.478;19.036;2023-02-18T06:42:05;100635.66;;;11.43;100.00
56604;BME280;42486;47.478;19.036;2023-02-18T06:45:10;100609.72;;;11.40;100.00
56604;BME280;42486;47.478;19.036;2023-02-18T06:48:14;100614.84;;;11.41;100.00
56604;BME280;42486;47.478;19.036;2023-02-18T06:51:20;100612.59;;;11.48;100.00
56604;BME280;42486;47.478;19.036;2023-02-18T06:54:24;100610.50;;;11.53;100.00
56604;BME280;42486;47.478;19.036;2023-02-18T06:57:27;100629.09;;;11.61;100.00
56604;BME280;42486;47.478;19.036;2023-02-18T07:00:31;100628.53;;;11.69;100.00
56604;BME280;42486;47.478;19.036;2023-02-18T07:03:38;100635.09;;;11.75;100.00
56604;BME280;42486;47.478;19.036;2023-02-18T07:06:42;100629.63;;;11.78;100.00
56604;BME280;42486;47.478;19.036;2023-02-18T07:09:46;100632.53;;;11.86;100.00
56604;BME280;42486;47.478;19.036;2023-02-18T07:12:55;100625.28;;;11.89;100.00
56604;BME280;42486;47.478;19.036;2023-02-18T07:16:03;100632.81;;;11.94;100.00
56604;BME280;42486;47.478;19.036;2023-02-18T07:19:07;100636.75;;;12.00;100.00
56604;BME280;42486;47.478;19.036;2023-02-18T07:22:12;100633.91;;;12.03;100.00
56604;BME280;42486;47.478;19.036;2023-02-18T07:25:15;100644.97;;;12.06;100.00
56604;BME280;42486;47.478;19.036;2023-02-18T07:28:20;100651.44;;;12.14;99.36
56604;BME280;42486;47.478;19.036;2023-02-18T07:31:26;100646.69;;;12.30;98.12
56604;BME280;42486;47.478;19.036;2023-02-18T07:34:29;100644.66;;;12.33;96.36
56604;BME280;42486;47.478;19.036;2023-02-18T07:37:39;100635.16;;;12.44;96.65
56604;BME280;42486;47.478;19.036;2023-02-18T07:40:44;100643.97;;;12.54;95.27
56604;BME280;42486;47.478;19.036;2023-02-18T07:43:51;100627.41;;;12.76;95.38
56604;BME280;42486;47.478;19.036;2023-02-18T07:46:54;100637.66;;;12.90;93.13
56604;BME280;42486;47.478;19.036;2023-02-18T07:49:57;100622.50;;;12.94;90.80
56604;BME280;42486;47.478;19.036;2023-02-18T07:53:02;100626.03;;;13.15;88.63
56604;BME280;42486;47.478;19.036;2023-02-18T07:56:07;100632.25;;;13.14;89.49
56604;BME280;42486;47.478;19.036;2023-02-18T07:59:11;100627.00;;;13.14;87.57
56604;BME280;42486;47.478;19.036;2023-02-18T08:02:19;100613.78;;;13.27;86.78
56604;BME280;42486;47.478;19.036;2023-02-18T08:05:24;100623.16;;;13.41;86.92
56604;BME280;42486;47.478;19.036;2023-02-18T08:08:31;100624.75;;;13.53;85.98
56604;BME280;42486;47.478;19.036;2023-02-18T08:11:41;100618.72;;;13.41;84.84
56604;BME280;42486;47.478;19.036;2023-02-18T08:14:44;100619.50;;;13.53;85.34
56604;BME280;42486;47.478;19.036;2023-02-18T08:17:49;100624.41;;;13.58;83.83
56604;BME280;42486;47.478;19.036;2023-02-18T08:20:52;100622.25;;;13.84;82.39
56604;BME280;42486;47.478;19.036;2023-02-18T08:23:56;100635.69;;;13.91;81.16
56604;BME280;42486;47.478;19.036;2023-02-18T08:27:00;100631.38;;;13.69;81.49
56604;BME280;42486;47.478;19.036;2023-02-18T08:30:04;100629.50;;;13.92;80.40
56604;BME280;42486;47.478;19.036;2023-02-18T08:33:08;100631.75;;;13.96;80.22
56604;BME280;42486;47.478;19.036;2023-02-18T08:36:10;100643.84;;;14.08;79.90
56604;BME280;42486;47.478;19.036;2023-02-18T08:39:14;100633.34;;;14.08;79.28
56604;BME280;42486;47.478;19.036;2023-02-18T08:42:19;100632.88;;;14.03;78.86
56604;BME280;42486;47.478;19.036;2023-02-18T08:45:25;100637.75;;;14.08;78.92
56604;BME280;42486;47.478;19.036;2023-02-18T08:48:28;100635.38;;;14.05;79.11
56604;BME280;42486;47.478;19.036;2023-02-18T08:51:31;100628.44;;;14.04;79.45
56604;BME280;42486;47.478;19.036;2023-02-18T08:54:34;100629.59;;;13.90;79.61
56604;BME280;42486;47.478;19.036;2023-02-18T08:57:37;100629.69;;;14.00;79.84
56604;BME280;42486;47.478;19.036;2023-02-18T09:00:42;100626.97;;;14.32;78.80
56604;BME280;42486;47.478;19.036;2023-02-18T09:03:46;100636.75;;;14.51;77.42
56604;BME280;42486;47.478;19.036;2023-02-18T09:06:51;100642.00;;;14.72;77.17
56604;BME280;42486;47.478;19.036;2023-02-18T09:09:55;100622.88;;;14.70;77.89
56604;BME280;42486;47.478;19.036;2023-02-18T09:12:58;100631.19;;;14.44;77.67
56604;BME280;42486;47.478;19.036;2023-02-18T09:16:09;100631.97;;;14.14;78.65
56604;BME280;42486;47.478;19.036;2023-02-18T09:19:13;100634.88;;;13.90;81.46
56604;BME280;42486;47.478;19.036;2023-02-18T09:22:16;100630.97;;;13.52;83.82
56604;BME280;42486;47.478;19.036;2023-02-18T09:25:20;100627.53;;;13.52;83.03
56604;BME280;42486;47.478;19.036;2023-02-18T09:28:23;100615.53;;;13.70;82.40
56604;BME280;42486;47.478;19.036;2023-02-18T09:31:28;100611.22;;;13.90;82.55
56604;BME280;42486;47.478;19.036;2023-02-18T09:34:31;100609.31;;;13.92;82.05
56604;BME280;42486;47.478;19.036;2023-02-18T09:37:34;100614.13;;;14.08;80.74
56604;BME280;42486;47.478;19.036;2023-02-18T09:40:41;100606.13;;;14.09;81.10
56604;BME280;42486;47.478;19.036;2023-02-18T09:43:46;100607.63;;;14.12;80.93
56604;BME280;42486;47.478;19.036;2023-02-18T09:46:51;100610.69;;;14.17;80.26
56604;BME280;42486;47.478;19.036;2023-02-18T09:49:56;100602.50;;;14.10;79.80
56604;BME280;42486;47.478;19.036;2023-02-18T09:53:00;100607.44;;;14.04;80.92
56604;BME280;42486;47.478;19.036;2023-02-18T09:56:08;100611.78;;;14.15;80.40
56604;BME280;42486;47.478;19.036;2023-02-18T09:59:21;100602.69;;;14.19;79.93
56604;BME280;42486;47.478;19.036;2023-02-18T10:02:28;100610.63;;;14.28;79.32
56604;BME280;42486;47.478;19.036;2023-02-18T10:05:31;100613.47;;;14.46;79.01
56604;BME280;42486;47.478;19.036;2023-02-18T10:08:37;100609.94;;;14.57;79.34
56604;BME280;42486;47.478;19.036;2023-02-18T10:11:42;100612.84;;;14.54;77.93
56604;BME280;42486;47.478;19.036;2023-02-18T10:14:55;100609.94;;;14.57;76.89
56604;BME280;42486;47.478;19.036;2023-02-18T10:17:59;100602.50;;;14.41;77.92
56604;BME280;42486;47.478;19.036;2023-02-18T10:21:14;100607.41;;;14.25;77.25
56604;BME280;42486;47.478;19.036;2023-02-18T10:27:32;100599.63;;;14.14;78.25
56604;BME280;42486;47.478;19.036;2023-02-18T10:30:39;100598.97;;;14.21;77.68
56604;BME280;42486;47.478;19.036;2023-02-18T10:36:55;100593.72;;;14.21;76.57
56604;BME280;42486;47.478;19.036;2023-02-18T10:46:52;100591.34;;;14.80;75.26
56604;BME280;42486;47.478;19.036;2023-02-18T10:50:00;100586.72;;;15.03;74.39
56604;BME280;42486;47.478;19.036;2023-02-18T10:53:47;100580.34;;;15.15;73.88
56604;BME280;42486;47.478;19.036;2023-02-18T10:56:40;100565.53;;;15.14;73.55
56604;BME280;42486;47.478;19.036;2023-02-18T11:00:32;100574.94;;;15.65;72.48
56604;BME280;42486;47.478;19.036;2023-02-18T11:03:24;100564.84;;;15.80;71.56
56604;BME280;42486;47.478;19.036;2023-02-18T11:09:38;100563.88;;;15.61;71.66
56604;BME280;42486;47.478;19.036;2023-02-18T11:12:47;100553.19;;;15.53;72.09
56604;BME280;42486;47.478;19.036;2023-02-18T11:15:55;100570.25;;;15.49;73.92
56604;BME280;42486;47.478;19.036;2023-02-18T11:18:58;100554.00;;;15.34;73.51
56604;BME280;42486;47.478;19.036;2023-02-18T11:22:07;100549.28;;;15.18;74.87
56604;BME280;42486;47.478;19.036;2023-02-18T11:25:31;100547.22;;;15.12;75.72
56604;BME280;42486;47.478;19.036;2023-02-18T11:28:39;100534.50;;;15.17;75.40
56604;BME280;42486;47.478;19.036;2023-02-18T11:31:46;100533.69;;;15.27;75.22
56604;BME280;42486;47.478;19.036;2023-02-18T11:34:53;100525.91;;;15.25;74.73
56604;BME280;42486;47.478;19.036;2023-02-18T11:37:57;100518.84;;;15.35;74.81
56604;BME280;42486;47.478;19.036;2023-02-18T11:41:12;100523.00;;;15.38;74.19
56604;BME280;42486;47.478;19.036;2023-02-18T11:44:25;100518.56;;;15.38;74.45
56604;BME280;42486;47.478;19.036;2023-02-18T11:47:33;100511.47;;;15.39;74.86
56604;BME280;42486;47.478;19.036;2023-02-18T11:50:38;100508.44;;;15.34;74.12
56604;BME280;42486;47.478;19.036;2023-02-18T11:54:03;100505.81;;;15.44;74.65
56604;BME280;42486;47.478;19.036;2023-02-18T11:57:05;100495.50;;;15.60;72.63
56604;BME280;42486;47.478;19.036;2023-02-18T12:06:51;100477.84;;;15.13;73.67
56604;BME280;42486;47.478;19.036;2023-02-18T12:10:02;100474.37;;;15.03;74.95
56604;BME280;42486;47.478;19.036;2023-02-18T12:13:14;100462.44;;;15.18;73.70
56604;BME280;42486;47.478;19.036;2023-02-18T12:16:24;100460.37;;;15.22;73.78
56604;BME280;42486;47.478;19.036;2023-02-18T12:22:43;100443.34;;;15.16;72.79
56604;BME280;42486;47.478;19.036;2023-02-18T12:25:53;100433.66;;;15.17;73.12
56604;BME280;42486;47.478;19.036;2023-02-18T12:42:11;100426.94;;;15.52;70.31
56604;BME280;42486;47.478;19.036;2023-02-18T12:52:05;100412.38;;;16.40;64.34
56604;BME280;42486;47.478;19.036;2023-02-18T13:01:37;100416.00;;;15.94;65.14
56604;BME280;42486;47.478;19.036;2023-02-18T13:11:34;100381.78;;;16.12;65.15
56604;BME280;42486;47.478;19.036;2023-02-18T13:14:42;100374.44;;;16.33;64.24
56604;BME280;42486;47.478;19.036;2023-02-18T13:17:49;100370.72;;;16.26;63.70
56604;BME280;42486;47.478;19.036;2023-02-18T13:20:54;100370.56;;;16.45;63.09
56604;BME280;42486;47.478;19.036;2023-02-18T13:24:03;100374.84;;;16.64;62.51
56604;BME280;42486;47.478;19.036;2023-02-18T13:27:30;100375.16;;;16.97;62.10
56604;BME280;42486;47.478;19.036;2023-02-18T13:33:57;100367.72;;;17.45;59.89
56604;BME280;42486;47.478;19.036;2023-02-18T13:40:26;100365.13;;;17.27;59.99
56604;BME280;42486;47.478;19.036;2023-02-18T13:43:32;100347.91;;;16.97;60.91
56604;BME280;42486;47.478;19.036;2023-02-18T13:46:47;100357.12;;;16.74;62.08
56604;BME280;42486;47.478;19.036;2023-02-18T13:49:51;100353.97;;;16.71;61.29
56604;BME280;42486;47.478;19.036;2023-02-18T13:59:22;100319.63;;;16.63;61.00
56604;BME280;42486;47.478;19.036;2023-02-18T14:02:31;100310.72;;;16.46;61.21
56604;BME280;42486;47.478;19.036;2023-02-18T14:05:38;100316.19;;;16.44;61.93
56604;BME280;42486;47.478;19.036;2023-02-18T14:08:42;100299.75;;;16.33;64.43
56604;BME280;42486;47.478;19.036;2023-02-18T14:14:53;100294.72;;;16.21;64.11
56604;BME280;42486;47.478;19.036;2023-02-18T14:18:21;100284.91;;;16.32;63.99
56604;BME280;42486;47.478;19.036;2023-02-18T14:21:41;100278.06;;;16.39;63.32
56604;BME280;42486;47.478;19.036;2023-02-18T14:24:52;100271.53;;;16.51;64.51
56604;BME280;42486;47.478;19.036;2023-02-18T14:28:00;100271.34;;;16.44;63.46
56604;BME280;42486;47.478;19.036;2023-02-18T14:31:05;100270.72;;;16.50;64.00
56604;BME280;42486;47.478;19.036;2023-02-18T14:40:41;100263.41;;;16.88;64.01
56604;BME280;42486;47.478;19.036;2023-02-18T14:50:30;100250.03;;;16.38;64.48
56604;BME280;42486;47.478;19.036;2023-02-18T14:53:39;100249.66;;;16.33;65.16
56604;BME280;42486;47.478;19.036;2023-02-18T14:59:59;100243.31;;;16.43;65.74
56604;BME280;42486;47.478;19.036;2023-02-18T15:03:02;100245.59;;;16.38;65.45
56604;BME280;42486;47.478;19.036;2023-02-18T15:06:20;100240.19;;;15.86;64.59
56604;BME280;42486;47.478;19.036;2023-02-18T15:09:23;100252.12;;;15.35;64.10
56604;BME280;42486;47.478;19.036;2023-02-18T15:12:26;100240.81;;;14.87;65.60
56604;BME280;42486;47.478;19.036;2023-02-18T15:15:30;100241.53;;;14.70;66.60
56604;BME280;42486;47.478;19.036;2023-02-18T15:18:37;100226.38;;;14.44;66.77
56604;BME280;42486;47.478;19.036;2023-02-18T15:21:43;100226.66;;;14.22;66.97
56604;BME280;42486;47.478;19.036;2023-02-18T15:24:48;100231.75;;;14.04;66.92
56604;BME280;42486;47.478;19.036;2023-02-18T15:27:53;100230.91;;;13.74;66.72
56604;BME280;42486;47.478;19.036;2023-02-18T15:31:00;100238.78;;;13.55;68.47
56604;BME280;42486;47.478;19.036;2023-02-18T15:37:26;100243.03;;;13.15;70.25
56604;BME280;42486;47.478;19.036;2023-02-18T15:40:30;100223.78;;;12.95;71.30
56604;BME280;42486;47.478;19.036;2023-02-18T15:43:34;100232.63;;;12.73;72.22
56604;BME280;42486;47.478;19.036;2023-02-18T15:46:39;100226.72;;;12.50;74.25
56604;BME280;42486;47.478;19.036;2023-02-18T15:50:00;100222.59;;;12.37;74.38
56604;BME280;42486;47.478;19.036;2023-02-18T15:53:10;100221.91;;;12.14;74.61
56604;BME280;42486;47.478;19.036;2023-02-18T15:56:21;100219.72;;;11.98;76.22
56604;BME280;42486;47.478;19.036;2023-02-18T15:59:37;100219.94;;;11.83;76.41
56604;BME280;42486;47.478;19.036;2023-02-18T16:02:52;100222.03;;;11.68;76.41
56604;BME280;42486;47.478;19.036;2023-02-18T16:06:11;100221.59;;;11.52;77.26
56604;BME280;42486;47.478;19.036;2023-02-18T16:09:26;100213.19;;;11.37;78.66
56604;BME280;42486;47.478;19.036;2023-02-18T16:12:31;100215.81;;;11.26;79.68
56604;BME280;42486;47.478;19.036;2023-02-18T16:15:38;100210.59;;;11.15;79.45
56604;BME280;42486;47.478;19.036;2023-02-18T16:18:42;100212.97;;;11.07;79.60
56604;BME280;42486;47.478;19.036;2023-02-18T16:21:46;100214.03;;;10.93;79.65
56604;BME280;42486;47.478;19.036;2023-02-18T16:24:56;100204.28;;;10.84;79.85
56604;BME280;42486;47.478;19.036;2023-02-18T16:31:04;100198.84;;;10.64;82.04
56604;BME280;42486;47.478;19.036;2023-02-18T16:34:12;100197.88;;;10.54;82.20
56604;BME280;42486;47.478;19.036;2023-02-18T16:37:19;100198.53;;;10.45;84.21
56604;BME280;42486;47.478;19.036;2023-02-18T16:40:40;100185.22;;;10.36;84.78
56604;BME280;42486;47.478;19.036;2023-02-18T16:43:46;100192.81;;;10.28;83.75
56604;BME280;42486;47.478;19.036;2023-02-18T16:46:57;100181.62;;;10.26;84.21
56604;BME280;42486;47.478;19.036;2023-02-18T16:50:01;100186.09;;;10.13;84.61
56604;BME280;42486;47.478;19.036;2023-02-18T16:53:05;100176.94;;;10.07;86.05
56604;BME280;42486;47.478;19.036;2023-02-18T16:56:15;100180.91;;;9.89;86.59
56604;BME280;42486;47.478;19.036;2023-02-18T16:59:19;100174.50;;;9.82;86.60
56604;BME280;42486;47.478;19.036;2023-02-18T17:02:22;100185.25;;;9.77;88.11
56604;BME280;42486;47.478;19.036;2023-02-18T17:05:28;100191.53;;;9.75;88.43
56604;BME280;42486;47.478;19.036;2023-02-18T17:08:30;100196.84;;;9.73;88.39
56604;BME280;42486;47.478;19.036;2023-02-18T17:11:34;100196.19;;;9.58;88.84
56604;BME280;42486;47.478;19.036;2023-02-18T17:14:38;100191.53;;;9.51;89.81
56604;BME280;42486;47.478;19.036;2023-02-18T17:17:41;100198.31;;;9.53;91.01
56604;BME280;42486;47.478;19.036;2023-02-18T17:20:44;100188.88;;;9.39;90.94
56604;BME280;42486;47.478;19.036;2023-02-18T17:23:50;100187.72;;;9.31;91.72
56604;BME280;42486;47.478;19.036;2023-02-18T17:26:53;100193.16;;;9.27;92.33
56604;BME280;42486;47.478;19.036;2023-02-18T17:29:55;100193.97;;;9.28;92.62
56604;BME280;42486;47.478;19.036;2023-02-18T17:33:00;100202.44;;;9.32;92.42
56604;BME280;42486;47.478;19.036;2023-02-18T17:36:04;100183.88;;;9.36;91.56
56604;BME280;42486;47.478;19.036;2023-02-18T17:39:10;100183.97;;;9.35;91.92
56604;BME280;42486;47.478;19.036;2023-02-18T17:42:14;100196.41;;;9.31;91.36
56604;BME280;42486;47.478;19.036;2023-02-18T17:45:24;100186.56;;;9.35;91.77
56604;BME280;42486;47.478;19.036;2023-02-18T17:48:30;100184.06;;;9.33;92.32
56604;BME280;42486;47.478;19.036;2023-02-18T17:51:33;100186.66;;;9.33;92.46
56604;BME280;42486;47.478;19.036;2023-02-18T17:54:38;100182.03;;;9.25;92.20
56604;BME280;42486;47.478;19.036;2023-02-18T17:57:41;100168.34;;;9.22;92.78
56604;BME280;42486;47.478;19.036;2023-02-18T18:00:48;100170.53;;;9.28;92.45
56604;BME280;42486;47.478;19.036;2023-02-18T18:03:52;100161.03;;;9.27;92.50
56604;BME280;42486;47.478;19.036;2023-02-18T18:06:55;100161.78;;;9.29;92.76
56604;BME280;42486;47.478;19.036;2023-02-18T18:09:58;100163.03;;;9.23;92.98